28°F Temp
28°F Dewpoint
100% Humidity
Temperature
5 MPH
8 KM/H
4 KTS
40°
North East

Wind Speed
Snow Showers
Pressure 1014 (hPa) - 29.92 (in)
Visibility 0.7 (mi) - 1.2 (km)

Current Conditions
KAVP
Location Wilkes-Barre / Scranton International 6km (3.2mi)
Metar :KAVP 200054Z 04004KT 3/4SM R04/P6000FT -SN BR VV010 M02/M02 A2992 RMK AO2 SLP140 P0005 T10221022
Sat 19th January 19:54 pm

Airport
  Metar Aviation API Data Provided by https://www.checkwx.com/ CSS/SVG/PHP scripts by weather34.com © 2015-2019